sensor_id;sensor_type;location;lat;lon;timestamp;temperature;humidity
1996;DHT22;38556;47.068;15.408;2023-07-24T00:00:55;24.70;99.90
1996;DHT22;38556;47.068;15.408;2023-07-24T00:03:22;24.70;99.90
1996;DHT22;38556;47.068;15.408;2023-07-24T00:05:49;24.70;99.90
1996;DHT22;38556;47.068;15.408;2023-07-24T00:08:18;24.70;99.90
1996;DHT22;38556;47.068;15.408;2023-07-24T00:10:45;24.60;99.90
1996;DHT22;38556;47.068;15.408;2023-07-24T00:13:13;24.60;99.90
1996;DHT22;38556;47.068;15.408;2023-07-24T00:15:40;24.50;99.90
1996;DHT22;38556;47.068;15.408;2023-07-24T00:18:07;24.50;99.90
1996;DHT22;38556;47.068;15.408;2023-07-24T00:20:35;20.50;99.90
1996;DHT22;38556;47.068;15.408;2023-07-24T00:23:02;24.50;99.90
1996;DHT22;38556;47.068;15.408;2023-07-24T00:25:30;24.40;99.90
1996;DHT22;38556;47.068;15.408;2023-07-24T00:27:58;24.40;99.90
1996;DHT22;38556;47.068;15.408;2023-07-24T00:30:25;24.40;99.90
1996;DHT22;38556;47.068;15.408;2023-07-24T00:32:52;24.40;99.90
1996;DHT22;38556;47.068;15.408;2023-07-24T00:35:20;24.30;99.90
1996;DHT22;38556;47.068;15.408;2023-07-24T00:37:47;24.30;99.90
1996;DHT22;38556;47.068;15.408;2023-07-24T00:40:14;24.20;99.90
1996;DHT22;38556;47.068;15.408;2023-07-24T00:42:47;24.20;99.90
1996;DHT22;38556;47.068;15.408;2023-07-24T00:45:15;24.20;99.90
1996;DHT22;38556;47.068;15.408;2023-07-24T00:47:42;24.20;99.90
1996;DHT22;38556;47.068;15.408;2023-07-24T00:50:10;24.10;99.90
1996;DHT22;38556;47.068;15.408;2023-07-24T00:52:38;24.10;99.90
1996;DHT22;38556;47.068;15.408;2023-07-24T00:55:06;24.10;99.90
1996;DHT22;38556;47.068;15.408;2023-07-24T00:57:34;24.10;99.90
1996;DHT22;38556;47.068;15.408;2023-07-24T01:00:03;24.10;99.90
1996;DHT22;38556;47.068;15.408;2023-07-24T01:02:31;24.10;99.90
1996;DHT22;38556;47.068;15.408;2023-07-24T01:04:59;24.00;99.90
1996;DHT22;38556;47.068;15.408;2023-07-24T01:07:26;24.00;99.90
1996;DHT22;38556;47.068;15.408;2023-07-24T01:09:54;23.90;99.90
1996;DHT22;38556;47.068;15.408;2023-07-24T01:12:27;23.90;99.90
1996;DHT22;38556;47.068;15.408;2023-07-24T01:15:06;23.90;99.90
1996;DHT22;38556;47.068;15.408;2023-07-24T01:17:36;23.90;99.90
1996;DHT22;38556;47.068;15.408;2023-07-24T01:20:09;24.00;99.90
1996;DHT22;38556;47.068;15.408;2023-07-24T01:22:39;24.00;99.90
1996;DHT22;38556;47.068;15.408;2023-07-24T01:25:22;24.00;99.90
1996;DHT22;38556;47.068;15.408;2023-07-24T01:27:51;24.00;99.90
1996;DHT22;38556;47.068;15.408;2023-07-24T01:30:19;23.90;99.90
1996;DHT22;38556;47.068;15.408;2023-07-24T01:32:46;23.90;99.90
1996;DHT22;38556;47.068;15.408;2023-07-24T01:35:14;23.90;99.90
1996;DHT22;38556;47.068;15.408;2023-07-24T01:37:43;23.80;99.90
1996;DHT22;38556;47.068;15.408;2023-07-24T01:40:11;23.80;99.90
1996;DHT22;38556;47.068;15.408;2023-07-24T01:42:39;23.80;99.90
1996;DHT22;38556;47.068;15.408;2023-07-24T01:45:09;23.70;99.90
1996;DHT22;38556;47.068;15.408;2023-07-24T01:47:37;23.70;99.90
1996;DHT22;38556;47.068;15.408;2023-07-24T01:52:31;23.70;99.90
1996;DHT22;38556;47.068;15.408;2023-07-24T01:54:58;23.60;99.90
1996;DHT22;38556;47.068;15.408;2023-07-24T01:57:26;23.50;99.90
1996;DHT22;38556;47.068;15.408;2023-07-24T01:59:53;23.40;99.90
1996;DHT22;38556;47.068;15.408;2023-07-24T02:02:22;23.40;99.90
1996;DHT22;38556;47.068;15.408;2023-07-24T02:04:49;23.40;99.90
1996;DHT22;38556;47.068;15.408;2023-07-24T02:07:16;23.40;99.90
1996;DHT22;38556;47.068;15.408;2023-07-24T02:09:44;23.40;99.90
1996;DHT22;38556;47.068;15.408;2023-07-24T02:12:12;23.40;99.90
1996;DHT22;38556;47.068;15.408;2023-07-24T02:14:38;23.30;99.90
1996;DHT22;38556;47.068;15.408;2023-07-24T02:17:06;23.30;99.90
1996;DHT22;38556;47.068;15.408;2023-07-24T02:19:34;23.30;99.90
1996;DHT22;38556;47.068;15.408;2023-07-24T02:22:02;23.20;99.90
1996;DHT22;38556;47.068;15.408;2023-07-24T02:24:29;23.20;99.90
1996;DHT22;38556;47.068;15.408;2023-07-24T02:26:57;23.20;99.90
1996;DHT22;38556;47.068;15.408;2023-07-24T02:29:24;23.10;99.90
1996;DHT22;38556;47.068;15.408;2023-07-24T02:31:53;23.10;99.90
1996;DHT22;38556;47.068;15.408;2023-07-24T02:34:20;23.20;99.90
1996;DHT22;38556;47.068;15.408;2023-07-24T02:36:52;23.20;99.90
1996;DHT22;38556;47.068;15.408;2023-07-24T02:39:19;23.20;99.90
1996;DHT22;38556;47.068;15.408;2023-07-24T02:41:47;23.20;99.90
1996;DHT22;38556;47.068;15.408;2023-07-24T02:44:14;23.10;99.90
1996;DHT22;38556;47.068;15.408;2023-07-24T02:46:42;23.10;99.90
1996;DHT22;38556;47.068;15.408;2023-07-24T02:49:09;23.10;99.90
1996;DHT22;38556;47.068;15.408;2023-07-24T02:51:36;23.10;99.90
1996;DHT22;38556;47.068;15.408;2023-07-24T02:54:05;23.10;99.90
1996;DHT22;38556;47.068;15.408;2023-07-24T02:56:32;23.10;99.90
1996;DHT22;38556;47.068;15.408;2023-07-24T02:59:00;23.10;99.90
1996;DHT22;38556;47.068;15.408;2023-07-24T03:01:27;23.10;99.90
1996;DHT22;38556;47.068;15.408;2023-07-24T03:03:55;23.00;99.90
1996;DHT22;38556;47.068;15.408;2023-07-24T03:06:22;23.00;99.90
1996;DHT22;38556;47.068;15.408;2023-07-24T03:08:50;23.00;99.90
1996;DHT22;38556;47.068;15.408;2023-07-24T03:11:18;22.90;99.90
1996;DHT22;38556;47.068;15.408;2023-07-24T03:13:46;22.60;99.90
1996;DHT22;38556;47.068;15.408;2023-07-24T03:16:13;22.60;99.90
1996;DHT22;38556;47.068;15.408;2023-07-24T03:18:40;22.60;99.90
1996;DHT22;38556;47.068;15.408;2023-07-24T03:21:07;22.60;99.90
1996;DHT22;38556;47.068;15.408;2023-07-24T03:23:35;22.60;99.90
1996;DHT22;38556;47.068;15.408;2023-07-24T03:26:02;22.60;99.90
1996;DHT22;38556;47.068;15.408;2023-07-24T03:28:31;22.60;99.90
1996;DHT22;38556;47.068;15.408;2023-07-24T03:30:58;22.70;99.90
1996;DHT22;38556;47.068;15.408;2023-07-24T03:33:25;22.70;99.90
1996;DHT22;38556;47.068;15.408;2023-07-24T03:35:52;22.50;99.90
1996;DHT22;38556;47.068;15.408;2023-07-24T03:38:20;22.40;99.90
1996;DHT22;38556;47.068;15.408;2023-07-24T03:40:47;22.30;99.90
1996;DHT22;38556;47.068;15.408;2023-07-24T03:43:15;22.40;99.90
1996;DHT22;38556;47.068;15.408;2023-07-24T03:45:44;22.40;99.90
1996;DHT22;38556;47.068;15.408;2023-07-24T03:48:12;22.40;99.90
1996;DHT22;38556;47.068;15.408;2023-07-24T03:50:40;22.40;99.90
1996;DHT22;38556;47.068;15.408;2023-07-24T03:53:08;22.40;99.90
1996;DHT22;38556;47.068;15.408;2023-07-24T03:55:36;22.50;99.90
1996;DHT22;38556;47.068;15.408;2023-07-24T03:58:02;22.50;99.90
1996;DHT22;38556;47.068;15.408;2023-07-24T04:00:30;22.60;99.90
1996;DHT22;38556;47.068;15.408;2023-07-24T04:02:59;22.60;99.90
1996;DHT22;38556;47.068;15.408;2023-07-24T04:05:26;22.70;99.90
1996;DHT22;38556;47.068;15.408;2023-07-24T04:07:54;22.70;99.90
1996;DHT22;38556;47.068;15.408;2023-07-24T04:10:22;22.70;99.90
1996;DHT22;38556;47.068;15.408;2023-07-24T04:12:48;22.70;99.90
1996;DHT22;38556;47.068;15.408;2023-07-24T04:15:15;22.70;99.90
1996;DHT22;38556;47.068;15.408;2023-07-24T04:17:43;22.60;99.90
1996;DHT22;38556;47.068;15.408;2023-07-24T04:20:11;22.60;99.90
1996;DHT22;38556;47.068;15.408;2023-07-24T04:22:38;22.70;99.90
1996;DHT22;38556;47.068;15.408;2023-07-24T04:25:07;22.70;99.90
1996;DHT22;38556;47.068;15.408;2023-07-24T04:27:34;22.80;99.90
1996;DHT22;38556;47.068;15.408;2023-07-24T04:30:02;22.90;99.90
1996;DHT22;38556;47.068;15.408;2023-07-24T04:32:29;22.90;99.90
1996;DHT22;38556;47.068;15.408;2023-07-24T04:34:56;23.00;99.90
1996;DHT22;38556;47.068;15.408;2023-07-24T04:37:25;23.00;99.90
1996;DHT22;38556;47.068;15.408;2023-07-24T04:39:53;23.00;99.90
1996;DHT22;38556;47.068;15.408;2023-07-24T04:42:20;23.00;99.90
1996;DHT22;38556;47.068;15.408;2023-07-24T04:44:47;23.00;99.90
1996;DHT22;38556;47.068;15.408;2023-07-24T04:47:16;23.10;99.90
1996;DHT22;38556;47.068;15.408;2023-07-24T04:49:43;23.10;99.90
1996;DHT22;38556;47.068;15.408;2023-07-24T04:52:10;23.20;99.90
1996;DHT22;38556;47.068;15.408;2023-07-24T04:54:39;23.20;99.90
1996;DHT22;38556;47.068;15.408;2023-07-24T04:57:06;23.20;99.90
1996;DHT22;38556;47.068;15.408;2023-07-24T04:59:34;23.30;99.90
1996;DHT22;38556;47.068;15.408;2023-07-24T05:02:00;23.30;99.90
1996;DHT22;38556;47.068;15.408;2023-07-24T05:04:28;23.40;99.90
1996;DHT22;38556;47.068;15.408;2023-07-24T05:06:55;23.50;99.90
1996;DHT22;38556;47.068;15.408;2023-07-24T05:09:22;23.50;99.90
1996;DHT22;38556;47.068;15.408;2023-07-24T05:11:51;23.50;99.90
1996;DHT22;38556;47.068;15.408;2023-07-24T05:14:18;23.60;99.90
1996;DHT22;38556;47.068;15.408;2023-07-24T05:16:46;23.60;99.90
1996;DHT22;38556;47.068;15.408;2023-07-24T05:19:13;23.70;99.90
1996;DHT22;38556;47.068;15.408;2023-07-24T05:21:40;23.70;99.90
1996;DHT22;38556;47.068;15.408;2023-07-24T05:24:07;23.80;99.90
1996;DHT22;38556;47.068;15.408;2023-07-24T05:26:34;23.90;99.90
1996;DHT22;38556;47.068;15.408;2023-07-24T05:29:03;23.90;99.90
1996;DHT22;38556;47.068;15.408;2023-07-24T05:31:30;24.00;99.90
1996;DHT22;38556;47.068;15.408;2023-07-24T05:33:58;24.10;99.90
1996;DHT22;38556;47.068;15.408;2023-07-24T05:36:25;24.10;99.90
1996;DHT22;38556;47.068;15.408;2023-07-24T05:38:52;24.10;99.90
1996;DHT22;38556;47.068;15.408;2023-07-24T05:41:19;24.10;99.90
1996;DHT22;38556;47.068;15.408;2023-07-24T05:43:47;23.70;99.90
1996;DHT22;38556;47.068;15.408;2023-07-24T05:46:16;23.70;99.90
1996;DHT22;38556;47.068;15.408;2023-07-24T05:48:43;23.60;99.90
1996;DHT22;38556;47.068;15.408;2023-07-24T05:51:10;23.60;99.90
1996;DHT22;38556;47.068;15.408;2023-07-24T05:53:37;23.50;99.90
1996;DHT22;38556;47.068;15.408;2023-07-24T05:56:05;23.30;99.90
1996;DHT22;38556;47.068;15.408;2023-07-24T05:58:33;23.50;99.90
1996;DHT22;38556;47.068;15.408;2023-07-24T06:01:01;23.60;99.90
1996;DHT22;38556;47.068;15.408;2023-07-24T06:03:29;23.70;99.90
1996;DHT22;38556;47.068;15.408;2023-07-24T06:05:57;23.80;99.90
1996;DHT22;38556;47.068;15.408;2023-07-24T06:08:24;23.80;99.90
1996;DHT22;38556;47.068;15.408;2023-07-24T06:10:51;23.80;99.90
1996;DHT22;38556;47.068;15.408;2023-07-24T06:13:19;23.90;99.90
1996;DHT22;38556;47.068;15.408;2023-07-24T06:15:47;23.90;99.90
1996;DHT22;38556;47.068;15.408;2023-07-24T06:18:14;23.80;99.90
1996;DHT22;38556;47.068;15.408;2023-07-24T06:20:43;23.90;99.90
1996;DHT22;38556;47.068;15.408;2023-07-24T06:23:10;23.90;99.90
1996;DHT22;38556;47.068;15.408;2023-07-24T06:25:37;23.80;99.90
1996;DHT22;38556;47.068;15.408;2023-07-24T06:28:05;24.00;99.90
1996;DHT22;38556;47.068;15.408;2023-07-24T06:30:32;24.00;99.90
1996;DHT22;38556;47.068;15.408;2023-07-24T06:32:59;23.80;99.90
1996;DHT22;38556;47.068;15.408;2023-07-24T06:35:26;23.80;99.90
1996;DHT22;38556;47.068;15.408;2023-07-24T06:37:55;23.80;99.90
1996;DHT22;38556;47.068;15.408;2023-07-24T06:40:22;24.00;99.90
1996;DHT22;38556;47.068;15.408;2023-07-24T06:42:50;24.00;99.90
1996;DHT22;38556;47.068;15.408;2023-07-24T06:45:18;24.00;99.90
1996;DHT22;38556;47.068;15.408;2023-07-24T06:47:46;24.00;99.90
1996;DHT22;38556;47.068;15.408;2023-07-24T06:50:13;24.30;99.90
1996;DHT22;38556;47.068;15.408;2023-07-24T06:52:40;24.20;99.90
1996;DHT22;38556;47.068;15.408;2023-07-24T06:55:09;24.40;99.90
1996;DHT22;38556;47.068;15.408;2023-07-24T06:57:37;24.40;99.90
1996;DHT22;38556;47.068;15.408;2023-07-24T07:00:04;24.50;99.90
1996;DHT22;38556;47.068;15.408;2023-07-24T07:02:34;24.50;99.90
1996;DHT22;38556;47.068;15.408;2023-07-24T07:05:01;24.70;99.90
1996;DHT22;38556;47.068;15.408;2023-07-24T07:07:29;24.80;99.90
1996;DHT22;38556;47.068;15.408;2023-07-24T07:09:56;24.90;99.90
1996;DHT22;38556;47.068;15.408;2023-07-24T07:12:25;25.00;99.90
1996;DHT22;38556;47.068;15.408;2023-07-24T07:14:52;25.10;99.90
1996;DHT22;38556;47.068;15.408;2023-07-24T07:17:19;25.20;99.90
1996;DHT22;38556;47.068;15.408;2023-07-24T07:19:46;25.20;99.90
1996;DHT22;38556;47.068;15.408;2023-07-24T07:22:14;25.20;99.90
1996;DHT22;38556;47.068;15.408;2023-07-24T07:24:41;25.10;99.90
1996;DHT22;38556;47.068;15.408;2023-07-24T07:27:09;25.10;99.90
1996;DHT22;38556;47.068;15.408;2023-07-24T07:29:38;24.90;99.90
1996;DHT22;38556;47.068;15.408;2023-07-24T07:32:06;25.10;99.90
1996;DHT22;38556;47.068;15.408;2023-07-24T07:34:34;25.20;99.90
1996;DHT22;38556;47.068;15.408;2023-07-24T07:37:03;25.30;99.90
1996;DHT22;38556;47.068;15.408;2023-07-24T07:39:30;25.40;99.90
1996;DHT22;38556;47.068;15.408;2023-07-24T07:41:58;25.50;99.90
1996;DHT22;38556;47.068;15.408;2023-07-24T07:44:25;25.40;99.90
1996;DHT22;38556;47.068;15.408;2023-07-24T07:46:54;25.40;99.90
1996;DHT22;38556;47.068;15.408;2023-07-24T07:49:21;25.50;99.90
1996;DHT22;38556;47.068;15.408;2023-07-24T07:51:48;25.50;99.90
1996;DHT22;38556;47.068;15.408;2023-07-24T07:54:15;25.50;99.90
1996;DHT22;38556;47.068;15.408;2023-07-24T07:56:43;25.60;99.90
1996;DHT22;38556;47.068;15.408;2023-07-24T07:59:10;25.70;99.90
1996;DHT22;38556;47.068;15.408;2023-07-24T08:01:37;25.70;99.90
1996;DHT22;38556;47.068;15.408;2023-07-24T08:04:07;25.70;99.90
1996;DHT22;38556;47.068;15.408;2023-07-24T08:06:34;25.70;99.90
1996;DHT22;38556;47.068;15.408;2023-07-24T08:09:02;25.80;99.90
1996;DHT22;38556;47.068;15.408;2023-07-24T08:11:29;25.90;99.90
1996;DHT22;38556;47.068;15.408;2023-07-24T08:13:56;26.10;99.90
1996;DHT22;38556;47.068;15.408;2023-07-24T08:16:24;26.10;99.90
1996;DHT22;38556;47.068;15.408;2023-07-24T08:18:51;26.10;99.90
1996;DHT22;38556;47.068;15.408;2023-07-24T08:21:20;26.30;99.90
1996;DHT22;38556;47.068;15.408;2023-07-24T08:23:47;26.20;99.90
1996;DHT22;38556;47.068;15.408;2023-07-24T08:26:14;26.20;99.90
1996;DHT22;38556;47.068;15.408;2023-07-24T08:28:41;26.20;99.90
1996;DHT22;38556;47.068;15.408;2023-07-24T08:31:09;26.20;99.90
1996;DHT22;38556;47.068;15.408;2023-07-24T08:33:36;26.30;99.90
1996;DHT22;38556;47.068;15.408;2023-07-24T08:36:05;26.30;99.90
1996;DHT22;38556;47.068;15.408;2023-07-24T08:38:34;26.30;99.90
1996;DHT22;38556;47.068;15.408;2023-07-24T08:41:03;26.40;99.90
1996;DHT22;38556;47.068;15.408;2023-07-24T08:46:00;26.40;99.90
1996;DHT22;38556;47.068;15.408;2023-07-24T08:48:30;26.40;99.90
1996;DHT22;38556;47.068;15.408;2023-07-24T08:50:59;26.60;99.90
1996;DHT22;38556;47.068;15.408;2023-07-24T08:53:26;26.70;99.90
1996;DHT22;38556;47.068;15.408;2023-07-24T08:55:57;26.70;99.90
1996;DHT22;38556;47.068;15.408;2023-07-24T08:58:26;26.70;99.90
1996;DHT22;38556;47.068;15.408;2023-07-24T09:00:53;26.80;99.90
1996;DHT22;38556;47.068;15.408;2023-07-24T09:03:20;26.80;99.90
1996;DHT22;38556;47.068;15.408;2023-07-24T09:05:48;26.70;99.90
1996;DHT22;38556;47.068;15.408;2023-07-24T09:08:15;26.70;99.90
1996;DHT22;38556;47.068;15.408;2023-07-24T09:10:43;26.70;99.90
1996;DHT22;38556;47.068;15.408;2023-07-24T09:13:13;26.90;99.90
1996;DHT22;38556;47.068;15.408;2023-07-24T09:15:41;27.10;99.90
1996;DHT22;38556;47.068;15.408;2023-07-24T09:18:09;27.20;99.90
1996;DHT22;38556;47.068;15.408;2023-07-24T09:20:40;27.20;99.90
1996;DHT22;38556;47.068;15.408;2023-07-24T09:23:08;27.40;99.90
1996;DHT22;38556;47.068;15.408;2023-07-24T09:25:36;27.50;99.90
1996;DHT22;38556;47.068;15.408;2023-07-24T09:28:11;27.70;99.90
1996;DHT22;38556;47.068;15.408;2023-07-24T09:30:41;27.70;99.90
1996;DHT22;38556;47.068;15.408;2023-07-24T09:33:09;27.80;99.90
1996;DHT22;38556;47.068;15.408;2023-07-24T09:35:37;27.70;99.90
1996;DHT22;38556;47.068;15.408;2023-07-24T09:38:06;27.70;99.90
1996;DHT22;38556;47.068;15.408;2023-07-24T09:40:40;27.70;99.90
1996;DHT22;38556;47.068;15.408;2023-07-24T09:43:16;27.60;99.90
1996;DHT22;38556;47.068;15.408;2023-07-24T09:45:46;27.80;99.90
1996;DHT22;38556;47.068;15.408;2023-07-24T09:48:14;27.70;99.90
1996;DHT22;38556;47.068;15.408;2023-07-24T09:50:43;28.00;99.90
1996;DHT22;38556;47.068;15.408;2023-07-24T09:53:15;27.90;99.90
1996;DHT22;38556;47.068;15.408;2023-07-24T09:55:50;28.00;99.90
1996;DHT22;38556;47.068;15.408;2023-07-24T09:58:19;27.90;99.90
1996;DHT22;38556;47.068;15.408;2023-07-24T10:00:49;27.70;99.90
1996;DHT22;38556;47.068;15.408;2023-07-24T10:03:17;27.60;99.80
1996;DHT22;38556;47.068;15.408;2023-07-24T10:05:47;27.70;99.50
1996;DHT22;38556;47.068;15.408;2023-07-24T10:08:14;27.80;99.20
1996;DHT22;38556;47.068;15.408;2023-07-24T10:10:42;28.00;98.70
1996;DHT22;38556;47.068;15.408;2023-07-24T10:13:11;28.10;99.40
1996;DHT22;38556;47.068;15.408;2023-07-24T10:15:41;28.00;98.30
1996;DHT22;38556;47.068;15.408;2023-07-24T10:18:10;27.80;98.80
1996;DHT22;38556;47.068;15.408;2023-07-24T10:20:40;27.90;99.00
1996;DHT22;38556;47.068;15.408;2023-07-24T10:23:09;27.90;99.50
1996;DHT22;38556;47.068;15.408;2023-07-24T10:25:39;27.80;99.10
1996;DHT22;38556;47.068;15.408;2023-07-24T10:28:08;28.00;98.90
1996;DHT22;38556;47.068;15.408;2023-07-24T10:30:37;27.90;98.80
1996;DHT22;38556;47.068;15.408;2023-07-24T10:33:08;28.00;98.60
1996;DHT22;38556;47.068;15.408;2023-07-24T10:35:39;28.10;98.20
1996;DHT22;38556;47.068;15.408;2023-07-24T10:38:06;28.30;98.00
1996;DHT22;38556;47.068;15.408;2023-07-24T10:40:34;28.30;98.40
1996;DHT22;38556;47.068;15.408;2023-07-24T10:43:04;28.20;97.50
1996;DHT22;38556;47.068;15.408;2023-07-24T10:45:46;28.10;97.70
1996;DHT22;38556;47.068;15.408;2023-07-24T10:48:13;28.30;98.20
1996;DHT22;38556;47.068;15.408;2023-07-24T10:50:44;28.50;98.70
1996;DHT22;38556;47.068;15.408;2023-07-24T10:53:13;28.50;99.00
1996;DHT22;38556;47.068;15.408;2023-07-24T10:55:42;28.50;99.90
1996;DHT22;38556;47.068;15.408;2023-07-24T10:58:09;28.50;99.90
1996;DHT22;38556;47.068;15.408;2023-07-24T11:00:39;28.40;99.90
1996;DHT22;38556;47.068;15.408;2023-07-24T11:03:09;28.30;99.90
1996;DHT22;38556;47.068;15.408;2023-07-24T11:05:39;28.30;99.90
1996;DHT22;38556;47.068;15.408;2023-07-24T11:08:13;28.30;99.90
1996;DHT22;38556;47.068;15.408;2023-07-24T11:10:44;28.30;99.70
1996;DHT22;38556;47.068;15.408;2023-07-24T11:13:12;28.20;98.70
1996;DHT22;38556;47.068;15.408;2023-07-24T11:15:40;28.00;97.70
1996;DHT22;38556;47.068;15.408;2023-07-24T11:18:07;28.00;98.20
1996;DHT22;38556;47.068;15.408;2023-07-24T11:20:37;28.00;98.50
1996;DHT22;38556;47.068;15.408;2023-07-24T11:23:04;28.00;99.00
1996;DHT22;38556;47.068;15.408;2023-07-24T11:25:33;27.80;99.70
1996;DHT22;38556;47.068;15.408;2023-07-24T11:28:00;28.00;99.90
1996;DHT22;38556;47.068;15.408;2023-07-24T11:30:30;28.00;99.90
1996;DHT22;38556;47.068;15.408;2023-07-24T11:33:00;28.10;99.90
1996;DHT22;38556;47.068;15.408;2023-07-24T11:35:28;28.20;99.90
1996;DHT22;38556;47.068;15.408;2023-07-24T11:37:55;28.40;99.90
1996;DHT22;38556;47.068;15.408;2023-07-24T11:40:33;28.40;99.90
1996;DHT22;38556;47.068;15.408;2023-07-24T11:43:01;28.40;99.80
1996;DHT22;38556;47.068;15.408;2023-07-24T11:45:29;29.60;99.10
1996;DHT22;38556;47.068;15.408;2023-07-24T11:47:57;28.50;98.70
1996;DHT22;38556;47.068;15.408;2023-07-24T11:50:25;28.60;98.50
1996;DHT22;38556;47.068;15.408;2023-07-24T11:52:52;28.80;98.50
1996;DHT22;38556;47.068;15.408;2023-07-24T11:55:30;28.90;98.20
1996;DHT22;38556;47.068;15.408;2023-07-24T11:57:59;29.10;98.20
1996;DHT22;38556;47.068;15.408;2023-07-24T12:00:27;29.10;97.50
1996;DHT22;38556;47.068;15.408;2023-07-24T12:02:59;29.10;97.30
1996;DHT22;38556;47.068;15.408;2023-07-24T12:05:26;29.00;98.00
1996;DHT22;38556;47.068;15.408;2023-07-24T12:07:54;29.10;98.50
1996;DHT22;38556;47.068;15.408;2023-07-24T12:10:26;29.20;96.60
1996;DHT22;38556;47.068;15.408;2023-07-24T12:12:57;29.40;97.00
1996;DHT22;38556;47.068;15.408;2023-07-24T12:15:26;29.50;96.70
1996;DHT22;38556;47.068;15.408;2023-07-24T12:17:54;29.60;97.70
1996;DHT22;38556;47.068;15.408;2023-07-24T12:20:23;29.50;96.90
1996;DHT22;38556;47.068;15.408;2023-07-24T12:22:50;29.40;96.50
1996;DHT22;38556;47.068;15.408;2023-07-24T12:25:17;29.50;94.70
1996;DHT22;38556;47.068;15.408;2023-07-24T12:27:45;29.50;94.60
1996;DHT22;38556;47.068;15.408;2023-07-24T12:30:13;29.50;94.50
1996;DHT22;38556;47.068;15.408;2023-07-24T12:32:42;29.50;95.30
1996;DHT22;38556;47.068;15.408;2023-07-24T12:35:10;29.30;95.70
1996;DHT22;38556;47.068;15.408;2023-07-24T12:37:37;29.30;96.50
1996;DHT22;38556;47.068;15.408;2023-07-24T12:40:07;29.30;97.10
1996;DHT22;38556;47.068;15.408;2023-07-24T12:42:34;29.20;96.80
1996;DHT22;38556;47.068;15.408;2023-07-24T12:45:02;29.20;97.30
1996;DHT22;38556;47.068;15.408;2023-07-24T12:47:30;29.10;97.90
1996;DHT22;38556;47.068;15.408;2023-07-24T12:50:01;29.10;97.80
1996;DHT22;38556;47.068;15.408;2023-07-24T12:52:29;29.10;94.00
1996;DHT22;38556;47.068;15.408;2023-07-24T12:54:57;29.10;92.50
1996;DHT22;38556;47.068;15.408;2023-07-24T12:57:24;29.10;91.10
1996;DHT22;38556;47.068;15.408;2023-07-24T12:59:52;29.10;91.50
1996;DHT22;38556;47.068;15.408;2023-07-24T13:02:20;29.20;89.70
1996;DHT22;38556;47.068;15.408;2023-07-24T13:04:47;29.20;85.70
1996;DHT22;38556;47.068;15.408;2023-07-24T13:07:16;29.30;86.40
1996;DHT22;38556;47.068;15.408;2023-07-24T13:09:44;29.20;83.50
1996;DHT22;38556;47.068;15.408;2023-07-24T13:12:11;29.30;85.60
1996;DHT22;38556;47.068;15.408;2023-07-24T13:14:38;29.30;83.80
1996;DHT22;38556;47.068;15.408;2023-07-24T13:17:06;29.20;84.50
1996;DHT22;38556;47.068;15.408;2023-07-24T13:19:33;29.30;83.70
1996;DHT22;38556;47.068;15.408;2023-07-24T13:22:00;29.30;84.60
1996;DHT22;38556;47.068;15.408;2023-07-24T13:24:29;29.30;83.10
1996;DHT22;38556;47.068;15.408;2023-07-24T13:26:56;29.30;83.80
1996;DHT22;38556;47.068;15.408;2023-07-24T13:29:23;29.40;83.00
1996;DHT22;38556;47.068;15.408;2023-07-24T13:31:51;29.30;83.50
1996;DHT22;38556;47.068;15.408;2023-07-24T13:34:18;29.30;82.60
1996;DHT22;38556;47.068;15.408;2023-07-24T13:36:46;29.40;83.60
1996;DHT22;38556;47.068;15.408;2023-07-24T13:39:15;29.50;83.20
1996;DHT22;38556;47.068;15.408;2023-07-24T13:41:44;29.40;83.90
1996;DHT22;38556;47.068;15.408;2023-07-24T13:44:12;29.30;81.80
1996;DHT22;38556;47.068;15.408;2023-07-24T13:46:39;29.30;82.70
1996;DHT22;38556;47.068;15.408;2023-07-24T13:49:07;29.40;83.50
1996;DHT22;38556;47.068;15.408;2023-07-24T13:51:34;29.40;82.40
1996;DHT22;38556;47.068;15.408;2023-07-24T13:54:02;29.40;82.30
1996;DHT22;38556;47.068;15.408;2023-07-24T13:56:30;29.40;82.60
1996;DHT22;38556;47.068;15.408;2023-07-24T13:59:02;29.40;83.00
1996;DHT22;38556;47.068;15.408;2023-07-24T14:01:31;29.50;84.00
1996;DHT22;38556;47.068;15.408;2023-07-24T14:03:59;29.50;83.10
1996;DHT22;38556;47.068;15.408;2023-07-24T14:06:28;29.50;83.90
1996;DHT22;38556;47.068;15.408;2023-07-24T14:08:55;29.40;85.10
1996;DHT22;38556;47.068;15.408;2023-07-24T14:11:23;29.40;84.20
1996;DHT22;38556;47.068;15.408;2023-07-24T14:13:52;29.40;84.60
1996;DHT22;38556;47.068;15.408;2023-07-24T14:16:21;29.30;83.60
1996;DHT22;38556;47.068;15.408;2023-07-24T14:18:49;29.30;84.00
1996;DHT22;38556;47.068;15.408;2023-07-24T14:21:16;29.20;83.60
1996;DHT22;38556;47.068;15.408;2023-07-24T14:23:45;29.20;81.90
1996;DHT22;38556;47.068;15.408;2023-07-24T14:26:13;29.10;81.90
1996;DHT22;38556;47.068;15.408;2023-07-24T14:28:42;29.00;82.30
1996;DHT22;38556;47.068;15.408;2023-07-24T14:31:11;29.00;83.50
1996;DHT22;38556;47.068;15.408;2023-07-24T14:33:41;28.90;82.10
1996;DHT22;38556;47.068;15.408;2023-07-24T14:36:08;28.90;82.60
1996;DHT22;38556;47.068;15.408;2023-07-24T14:38:36;28.90;83.40
1996;DHT22;38556;47.068;15.408;2023-07-24T14:41:05;28.80;83.10
1996;DHT22;38556;47.068;15.408;2023-07-24T14:43:33;28.70;83.40
1996;DHT22;38556;47.068;15.408;2023-07-24T14:46:01;28.60;83.20
1996;DHT22;38556;47.068;15.408;2023-07-24T14:48:30;28.60;81.50
1996;DHT22;38556;47.068;15.408;2023-07-24T14:51:00;28.60;82.20
1996;DHT22;38556;47.068;15.408;2023-07-24T14:53:29;28.70;81.80
1996;DHT22;38556;47.068;15.408;2023-07-24T14:55:58;28.70;80.00
1996;DHT22;38556;47.068;15.408;2023-07-24T14:58:26;28.70;80.20
1996;DHT22;38556;47.068;15.408;2023-07-24T15:00:55;28.70;80.60
1996;DHT22;38556;47.068;15.408;2023-07-24T15:03:23;28.80;81.20
1996;DHT22;38556;47.068;15.408;2023-07-24T15:05:51;28.80;80.00
1996;DHT22;38556;47.068;15.408;2023-07-24T15:08:21;28.80;81.50
1996;DHT22;38556;47.068;15.408;2023-07-24T15:10:49;28.80;79.60
1996;DHT22;38556;47.068;15.408;2023-07-24T15:13:18;28.80;80.60
1996;DHT22;38556;47.068;15.408;2023-07-24T15:15:47;28.80;80.30
1996;DHT22;38556;47.068;15.408;2023-07-24T15:18:16;28.80;80.40
1996;DHT22;38556;47.068;15.408;2023-07-24T15:20:45;28.80;79.20
1996;DHT22;38556;47.068;15.408;2023-07-24T15:23:14;28.70;78.80
1996;DHT22;38556;47.068;15.408;2023-07-24T15:25:46;28.70;78.00
1996;DHT22;38556;47.068;15.408;2023-07-24T15:28:17;28.70;75.10
1996;DHT22;38556;47.068;15.408;2023-07-24T15:30:45;28.70;75.10
1996;DHT22;38556;47.068;15.408;2023-07-24T15:33:15;28.60;73.20
1996;DHT22;38556;47.068;15.408;2023-07-24T15:35:44;28.70;71.30
1996;DHT22;38556;47.068;15.408;2023-07-24T15:38:12;28.70;72.10
1996;DHT22;38556;47.068;15.408;2023-07-24T15:40:41;28.70;75.60